Time;durP1;ratioP1;P1;durP2;ratioP2;P2;SDS_P1;SDS_P2;PMS_P1;PMS_P2;Temp;Humidity;BMP_temperature;BMP_pressure;BME280_temperature;BME280_humidity;BME280_pressure;Samples;Min_cycle;Max_cycle;Signal;HPM_P1;HPM_P2
2021/10/11 00:00:03;;;;;;;;;67.75;51.00;;;;;14.50;71.66;102526.97;5055667;28;45544;-71
2021/10/11 00:02:29;;;;;;;;;62.25;47.00;;;;;14.49;71.83;102524.38;5056020;28;45596;-71
2021/10/11 00:04:54;;;;;;;;;64.33;47.67;;;;;14.50;71.58;102526.09;5056697;28;50146;-71
2021/10/11 00:07:19;;;;;;;;;66.50;48.75;;;;;14.47;71.83;102535.00;5055294;28;46065;-71
2021/10/11 00:09:45;;;;;;;;;62.50;48.25;;;;;14.45;71.64;102527.97;5054591;28;47051;-71
2021/10/11 00:12:10;;;;;;;;;68.00;49.25;;;;;14.41;71.88;102521.03;5050169;28;45380;-71
2021/10/11 00:14:35;;;;;;;;;64.25;47.50;;;;;14.36;71.76;102529.16;5039476;28;45513;-71
2021/10/11 00:17:01;;;;;;;;;57.25;46.00;;;;;14.30;71.99;102516.06;5051922;28;53430;-71
2021/10/11 00:19:27;;;;;;;;;65.00;46.00;;;;;14.26;71.99;102527.69;5050857;28;45408;-71
2021/10/11 00:21:52;;;;;;;;;61.75;48.25;;;;;14.19;72.34;102526.97;5051019;28;45448;-71
2021/10/11 00:24:17;;;;;;;;;61.25;47.50;;;;;14.07;72.61;102517.63;5050956;28;45394;-71
2021/10/11 00:26:43;;;;;;;;;67.75;50.25;;;;;14.12;72.85;102524.56;5054253;28;45425;-71
2021/10/11 00:29:08;;;;;;;;;67.25;46.50;;;;;14.15;73.20;102522.72;5052326;28;45325;-71
2021/10/11 00:31:33;;;;;;;;;68.25;49.50;;;;;14.18;73.00;102532.31;5050985;28;53865;-71
2021/10/11 00:33:59;;;;;;;;;62.33;48.33;;;;;14.14;72.74;102534.19;5050669;28;45525;-71
2021/10/11 00:36:25;;;;;;;;;65.25;46.50;;;;;14.08;73.01;102535.22;5050536;28;46368;-71
2021/10/11 00:38:50;;;;;;;;;62.75;47.50;;;;;14.01;72.78;102522.25;5053343;28;45431;-71
2021/10/11 00:41:15;;;;;;;;;64.25;48.25;;;;;13.96;73.29;102525.00;5054783;28;45851;-71
2021/10/11 00:43:41;;;;;;;;;63.50;48.75;;;;;13.90;73.27;102527.84;5056021;28;45434;-71
2021/10/11 00:46:07;;;;;;;;;59.75;46.75;;;;;13.80;73.39;102516.66;5050142;28;46106;-71
2021/10/11 00:48:36;;;;;;;;;64.25;47.75;;;;;13.82;73.59;102527.16;5055158;28;45488;-71
2021/10/11 00:51:05;;;;;;;;;63.75;48.75;;;;;13.75;73.88;102528.25;5051986;28;45341;-71
2021/10/11 00:53:31;;;;;;;;;67.75;48.00;;;;;13.72;73.77;102531.84;5054284;28;45552;-70
2021/10/11 00:55:56;;;;;;;;;66.50;49.50;;;;;13.69;74.39;102524.00;5050821;28;45480;-70
2021/10/11 00:58:21;;;;;;;;;71.50;51.00;;;;;13.66;73.95;102529.38;5049912;28;45566;-71
2021/10/11 01:00:47;;;;;;;;;62.25;48.25;;;;;13.57;74.34;102514.66;5049710;28;45540;-71
2021/10/11 01:03:12;;;;;;;;;67.00;51.50;;;;;13.61;74.05;102530.41;5050238;28;45363;-71
2021/10/11 01:05:38;;;;;;;;;67.00;50.00;;;;;13.56;74.28;102527.88;5054735;28;46037;-71
2021/10/11 01:08:03;;;;;;;;;68.00;49.67;;;;;13.52;74.41;102515.66;5051287;28;45425;-71
2021/10/11 01:10:29;;;;;;;;;62.50;48.25;;;;;13.49;74.31;102518.41;5054079;28;45393;-71
2021/10/11 01:12:54;;;;;;;;;66.75;49.00;;;;;13.42;74.72;102520.34;5049943;28;45555;-71
2021/10/11 01:15:20;;;;;;;;;62.00;48.00;;;;;13.42;74.33;102525.63;5049841;28;45763;-71
2021/10/11 01:17:45;;;;;;;;;52.00;36.50;;;;;13.39;74.63;102530.97;5053410;28;45410;-71
2021/10/11 01:20:10;;;;;;;;;61.25;46.50;;;;;13.34;74.77;102517.03;5051756;28;45304;-71
2021/10/11 01:22:41;;;;;;;;;64.25;46.75;;;;;13.32;74.28;102521.50;5050404;28;45279;-71
2021/10/11 01:25:09;;;;;;;;;70.50;50.00;;;;;13.29;74.57;102518.91;5049402;28;46236;-71
2021/10/11 01:27:34;;;;;;;;;72.50;51.25;;;;;13.24;74.70;102516.41;5054101;28;45819;-71
2021/10/11 01:30:01;;;;;;;;;63.50;46.50;;;;;13.23;74.76;102527.00;5053344;28;45375;-71
2021/10/11 01:32:27;;;;;;;;;66.25;47.50;;;;;13.11;74.79;102499.13;5053579;28;45378;-71
2021/10/11 01:34:53;;;;;;;;;67.50;47.50;;;;;13.13;75.11;102514.91;5050776;28;46172;-71
2021/10/11 01:37:18;;;;;;;;;61.00;48.50;;;;;13.14;75.14;102522.78;5048955;28;48679;-71
2021/10/11 01:39:44;;;;;;;;;72.50;51.25;;;;;13.14;75.68;102522.78;5049146;28;45507;-71
2021/10/11 01:42:10;;;;;;;;;68.50;50.00;;;;;13.19;75.90;102534.09;5049845;28;45611;-71
2021/10/11 01:44:36;;;;;;;;;77.00;55.00;;;;;13.26;76.19;102524.28;5053888;28;47045;-71
2021/10/11 01:47:02;;;;;;;;;75.00;55.25;;;;;13.31;76.20;102506.53;5050848;28;45342;-71
2021/10/11 01:49:27;;;;;;;;;71.75;54.00;;;;;13.47;76.54;102509.66;5054362;28;45481;-70
2021/10/11 01:51:53;;;;;;;;;76.25;54.50;;;;;13.53;77.47;102502.44;5048279;28;45476;-71
2021/10/11 01:54:18;;;;;;;;;70.25;51.75;;;;;13.61;77.51;102504.84;5048583;28;50145;-71
2021/10/11 01:56:43;;;;;;;;;69.75;52.00;;;;;13.68;76.93;102501.16;5053220;28;45400;-71
2021/10/11 01:59:09;;;;;;;;;70.75;51.50;;;;;13.74;77.08;102506.25;5050740;28;45249;-71
2021/10/11 02:01:34;;;;;;;;;72.75;53.25;;;;;13.80;76.64;102511.38;5054446;28;45834;-71
2021/10/11 02:03:59;;;;;;;;;68.33;51.00;;;;;13.84;76.65;102523.59;5049043;28;58275;-71
2021/10/11 02:06:25;;;;;;;;;65.00;48.67;;;;;13.86;76.66;102530.59;5053381;28;45527;-71
2021/10/11 02:08:50;;;;;;;;;66.25;49.00;;;;;13.86;77.13;102522.69;5052056;28;45522;-71
2021/10/11 02:11:16;;;;;;;;;66.50;49.25;;;;;13.86;76.93;102509.47;5050395;28;45445;-71
2021/10/11 02:13:41;;;;;;;;;76.50;51.50;;;;;13.89;76.62;102519.97;5050207;28;46024;-71
2021/10/11 02:16:07;;;;;;;;;67.50;48.50;;;;;13.91;77.21;102518.13;5053412;28;45528;-71
2021/10/11 02:18:32;;;;;;;;;67.75;52.00;;;;;13.92;77.17;102515.44;5049024;28;45790;-71
2021/10/11 02:20:58;;;;;;;;;67.25;51.00;;;;;13.95;77.19;102510.06;5032651;28;45558;-71
2021/10/11 02:23:23;;;;;;;;;69.50;51.75;;;;;13.89;77.59;102491.75;5052629;28;45990;-71
2021/10/11 02:25:48;;;;;;;;;69.25;50.25;;;;;14.02;77.41;102508.09;5050224;28;45303;-71
2021/10/11 02:28:14;;;;;;;;;68.00;50.00;;;;;14.06;77.33;102507.13;5053377;28;45431;-71
2021/10/11 02:30:40;;;;;;;;;68.50;50.50;;;;;14.07;77.35;102507.06;5048849;28;45383;-71
2021/10/11 02:33:05;;;;;;;;;66.00;47.75;;;;;14.02;77.41;102501.03;5049551;28;45410;-70
2021/10/11 02:35:30;;;;;;;;;64.25;48.25;;;;;14.11;77.70;102507.84;5052515;28;45417;-71
2021/10/11 02:37:55;;;;;;;;;71.00;50.50;;;;;14.14;77.38;102506.88;5050409;28;45336;-71
2021/10/11 02:40:21;;;;;;;;;69.25;50.50;;;;;14.17;76.75;102506.78;5048768;28;45181;-71
2021/10/11 02:42:46;;;;;;;;;64.25;49.25;;;;;14.18;77.11;102500.59;5048557;28;46085;-71
2021/10/11 02:45:11;;;;;;;;;67.67;51.33;;;;;14.20;77.52;102493.47;5053011;28;50656;-71
2021/10/11 02:47:37;;;;;;;;;68.00;49.50;;;;;14.20;77.31;102486.44;5053267;28;45509;-71
2021/10/11 02:50:04;;;;;;;;;67.00;50.25;;;;;14.24;77.79;102488.03;5049910;28;45612;-71
2021/10/11 02:52:32;;;;;;;;;68.25;48.50;;;;;14.26;77.69;102494.16;5047783;28;45473;-71
2021/10/11 02:54:58;;;;;;;;;67.50;47.75;;;;;14.30;77.81;102494.91;5052692;28;45535;-71
2021/10/11 02:57:23;;;;;;;;;68.50;50.00;;;;;14.28;77.71;102484.41;5030343;28;45912;-71
2021/10/11 02:59:48;;;;;;;;;65.00;48.67;;;;;14.36;77.49;102484.19;5051925;28;45429;-71
2021/10/11 03:02:14;;;;;;;;;66.67;48.33;;;;;14.38;77.59;102485.00;5050177;28;49485;-71
2021/10/11 03:04:39;;;;;;;;;65.25;50.75;;;;;14.36;77.66;102476.25;5048808;28;45442;-71
2021/10/11 03:07:04;;;;;;;;;65.33;48.00;;;;;14.41;77.68;102469.03;5052968;28;45512;-71
2021/10/11 03:09:30;;;;;;;;;61.75;47.75;;;;;14.44;77.93;102474.22;5048386;28;45378;-71
2021/10/11 03:11:55;;;;;;;;;67.00;48.33;;;;;14.48;77.88;102475.88;5048453;28;51336;-70
2021/10/11 03:14:21;;;;;;;;;58.50;47.25;;;;;14.48;77.47;102469.72;5050720;28;45456;-71
2021/10/11 03:16:46;;;;;;;;;68.25;48.25;;;;;14.52;77.72;102476.66;5049557;28;45361;-71
2021/10/11 03:19:12;;;;;;;;;63.67;47.00;;;;;14.56;77.67;102481.81;5047576;28;45692;-71
2021/10/11 03:21:37;;;;;;;;;67.50;49.75;;;;;14.59;77.67;102475.53;5048171;28;45491;-71
2021/10/11 03:24:02;;;;;;;;;66.25;49.00;;;;;14.61;77.47;102476.34;5055805;28;45405;-71
2021/10/11 03:26:28;;;;;;;;;63.50;46.50;;;;;14.59;77.47;102478.19;5055889;28;45518;-71
2021/10/11 03:28:53;;;;;;;;;66.00;47.75;;;;;14.64;77.73;102481.56;5055888;28;45440;-71
2021/10/11 03:31:19;;;;;;;;;64.25;46.75;;;;;14.67;77.52;102493.81;5051642;28;45534;-71
2021/10/11 03:33:44;;;;;;;;;66.75;48.00;;;;;14.68;77.83;102484.97;5055693;28;45440;-71
2021/10/11 03:36:09;;;;;;;;;60.75;47.50;;;;;14.69;77.70;102482.28;5051994;28;45462;-71
2021/10/11 03:38:35;;;;;;;;;62.75;49.00;;;;;14.65;77.63;102477.97;5054889;28;45566;-71
2021/10/11 03:41:00;;;;;;;;;61.50;46.50;;;;;14.72;77.71;102487.47;5052257;28;46270;-71
2021/10/11 03:43:26;;;;;;;;;63.25;46.75;;;;;14.74;77.65;102488.28;5051324;28;45294;-71
2021/10/11 03:45:51;;;;;;;;;62.50;45.50;;;;;14.75;77.58;102489.16;5051899;28;45385;-71
2021/10/11 03:48:17;;;;;;;;;68.25;47.50;;;;;14.76;77.78;102486.44;5050994;28;45857;-71
2021/10/11 03:50:45;;;;;;;;;65.25;47.50;;;;;14.75;77.81;102481.22;5055418;28;46029;-71
2021/10/11 03:53:11;;;;;;;;;72.00;48.75;;;;;14.73;77.48;102478.63;5052754;28;45420;-71
2021/10/11 03:55:37;;;;;;;;;61.50;48.00;;;;;14.80;77.77;102495.16;5051928;28;45430;-71
2021/10/11 03:58:02;;;;;;;;;61.33;48.00;;;;;14.80;77.72;102490.72;5050769;28;53547;-71
2021/10/11 04:00:27;;;;;;;;;59.75;45.50;;;;;14.76;77.27;102482.94;5050833;28;45326;-71
2021/10/11 04:02:53;;;;;;;;;61.25;44.25;;;;;14.83;77.70;102495.06;5053270;28;45308;-71
2021/10/11 04:05:18;;;;;;;;;63.00;45.33;;;;;14.84;77.61;102494.16;5053191;28;45491;-71
2021/10/11 04:07:49;;;;;;;;;56.00;44.00;;;;;14.85;77.45;102496.72;5052090;28;45239;-71
2021/10/11 04:10:14;;;;;;;;;52.25;39.75;;;;;14.86;77.27;102487.88;5050159;28;50615;-71
2021/10/11 04:12:43;;;;;;;;;52.25;40.00;;;;;14.85;77.57;102487.94;5055306;28;45671;-71
2021/10/11 04:15:09;;;;;;;;;52.50;40.50;;;;;14.79;77.67;102470.47;5051942;28;45540;-71
2021/10/11 04:17:40;;;;;;;;;50.75;38.50;;;;;14.82;77.20;102483.59;5054867;28;45307;-71
2021/10/11 04:20:07;;;;;;;;;53.25;38.75;;;;;14.86;77.60;102487.88;5056804;28;47114;-71
2021/10/11 04:22:33;;;;;;;;;52.00;39.00;;;;;14.85;77.64;102498.53;5050833;28;45436;-71
2021/10/11 04:24:58;;;;;;;;;44.00;38.00;;;;;14.85;77.66;102493.22;5050730;28;45466;-71
2021/10/11 04:27:23;;;;;;;;;50.25;35.25;;;;;14.85;76.92;102493.22;5050775;28;45452;-71
2021/10/11 04:29:49;;;;;;;;;33.50;31.50;;;;;14.76;77.47;102481.16;5054240;28;45515;-71
2021/10/11 04:32:14;;;;;;;;;39.00;32.25;;;;;14.78;77.24;102489.91;5052029;28;45312;-71
2021/10/11 04:34:39;;;;;;;;;45.67;33.00;;;;;14.76;77.53;102494.38;5050643;28;51487;-71
2021/10/11 04:37:05;;;;;;;;;34.75;30.00;;;;;14.74;77.84;102490.06;5050699;28;45568;-71
2021/10/11 04:39:30;;;;;;;;;37.00;30.00;;;;;14.71;77.43;102490.16;5050739;28;45989;-71
2021/10/11 04:41:56;;;;;;;;;36.75;30.00;;;;;14.69;77.52;102498.16;5053541;28;45488;-71
2021/10/11 04:44:21;;;;;;;;;32.75;29.50;;;;;14.65;77.81;102496.50;5054661;28;45306;-70
2021/10/11 04:46:46;;;;;;;;;28.50;26.50;;;;;14.60;77.68;102501.09;5055705;28;45485;-71
2021/10/11 04:49:12;;;;;;;;;29.50;27.00;;;;;14.54;77.75;102507.44;5054869;28;52018;-71
2021/10/11 04:51:37;;;;;;;;;33.25;28.00;;;;;14.48;78.00;102499.69;5049803;28;52113;-71
2021/10/11 04:54:03;;;;;;;;;31.50;24.75;;;;;14.42;78.13;102504.28;5054755;28;45485;-71
2021/10/11 04:56:28;;;;;;;;;26.50;25.25;;;;;14.35;77.83;102506.22;5054969;28;45384;-71
2021/10/11 04:58:54;;;;;;;;;32.25;23.50;;;;;14.29;78.26;102507.28;5033459;28;46161;-71
2021/10/11 05:01:21;;;;;;;;;32.00;25.67;;;;;14.23;78.37;102509.25;5049071;28;60652;-71
2021/10/11 05:03:46;;;;;;;;;27.75;22.25;;;;;14.15;78.67;102509.50;5054524;28;45529;-71
2021/10/11 05:06:11;;;;;;;;;26.00;21.00;;;;;14.09;78.88;102504.38;5050350;28;45575;-71
2021/10/11 05:08:37;;;;;;;;;26.75;23.25;;;;;14.03;78.73;102515.97;5054733;28;46182;-71
2021/10/11 05:11:02;;;;;;;;;30.25;24.00;;;;;13.99;78.82;102517.00;5055367;28;45480;-71
2021/10/11 05:13:27;;;;;;;;;27.75;23.50;;;;;13.95;79.24;102509.22;5049884;28;45491;-71
2021/10/11 05:15:53;;;;;;;;;27.00;20.25;;;;;13.90;79.34;102504.06;5049895;28;45463;-71
2021/10/11 05:18:18;;;;;;;;;29.25;21.00;;;;;13.87;79.39;102509.41;5049395;28;46078;-71
2021/10/11 05:20:50;;;;;;;;;32.25;23.75;;;;;13.82;79.35;102508.66;5053937;28;45439;-71
2021/10/11 05:23:18;;;;;;;;;25.00;21.50;;;;;13.72;79.52;102496.63;5051611;28;45444;-70
2021/10/11 05:25:44;;;;;;;;;22.75;20.50;;;;;13.69;79.80;102507.31;5051091;28;45478;-71
2021/10/11 05:28:10;;;;;;;;;26.25;21.00;;;;;13.73;79.62;102506.28;5049730;28;45396;-71
2021/10/11 05:30:39;;;;;;;;;23.00;19.00;;;;;13.71;79.68;102508.13;5049356;28;45457;-71
2021/10/11 05:33:05;;;;;;;;;26.00;21.00;;;;;13.69;79.58;102512.59;5050857;28;45454;-71
2021/10/11 05:35:30;;;;;;;;;25.50;22.50;;;;;13.67;79.95;102515.25;5053687;28;45569;-71
2021/10/11 05:37:55;;;;;;;;;21.75;20.25;;;;;13.65;79.59;102525.00;5050929;28;45395;-72
2021/10/11 05:40:21;;;;;;;;;28.00;22.00;;;;;13.62;79.90;102530.34;5047389;28;45895;-72
2021/10/11 05:42:46;;;;;;;;;27.50;21.75;;;;;13.61;79.77;102523.34;5051598;28;45577;-72
2021/10/11 05:45:11;;;;;;;;;35.25;23.00;;;;;13.61;80.05;102519.84;5050362;28;45842;-71
2021/10/11 05:47:38;;;;;;;;;23.50;18.75;;;;;13.60;79.92;102528.69;5049011;28;45335;-71
2021/10/11 05:50:04;;;;;;;;;30.75;23.50;;;;;13.60;79.93;102520.75;5067269;28;45450;-71
2021/10/11 05:52:29;;;;;;;;;24.25;22.50;;;;;13.57;80.03;102526.97;5053941;28;45516;-71
2021/10/11 05:54:54;;;;;;;;;25.75;21.75;;;;;13.56;80.14;102527.88;5059671;28;45489;-71
2021/10/11 05:57:20;;;;;;;;;19.50;18.00;;;;;13.58;80.30;102528.72;5058183;28;46192;-71
2021/10/11 05:59:45;;;;;;;;;28.75;17.50;;;;;13.63;80.07;102537.41;5052922;28;45404;-71
2021/10/11 06:02:11;;;;;;;;;24.00;19.25;;;;;13.68;80.14;102542.56;5063725;28;45477;-71
2021/10/11 06:04:36;;;;;;;;;18.25;17.50;;;;;13.66;80.01;102536.44;5052606;28;45461;-72
2021/10/11 06:07:01;;;;;;;;;23.75;17.75;;;;;13.76;80.03;102545.84;5049645;28;45503;-71
2021/10/11 06:09:27;;;;;;;;;22.00;19.00;;;;;13.77;80.02;102551.06;5052825;28;45401;-71
2021/10/11 06:11:52;;;;;;;;;18.00;18.00;;;;;13.79;79.98;102554.56;5051438;28;45993;-72
2021/10/11 06:14:20;;;;;;;;;21.00;17.75;;;;;13.80;79.94;102551.00;5051308;28;45579;-72
2021/10/11 06:16:45;;;;;;;;;13.75;13.00;;;;;13.80;79.71;102558.94;5053370;28;46171;-72
2021/10/11 06:19:11;;;;;;;;;16.25;16.25;;;;;13.78;79.48;102560.75;5053127;28;45643;-72
2021/10/11 06:21:36;;;;;;;;;24.25;17.75;;;;;13.70;79.55;102546.88;5052459;28;45438;-72
2021/10/11 06:24:03;;;;;;;;;15.25;14.50;;;;;13.69;79.71;102555.72;5053441;28;45329;-72
2021/10/11 06:26:29;;;;;;;;;15.00;13.50;;;;;13.76;79.64;102567.84;5052546;28;46173;-72
2021/10/11 06:28:54;;;;;;;;;17.00;13.00;;;;;13.77;79.76;102561.66;5053474;28;45587;-72
2021/10/11 06:31:19;;;;;;;;;18.50;14.00;;;;;13.78;79.24;102559.88;5051236;28;45569;-72
2021/10/11 06:33:45;;;;;;;;;17.25;13.75;;;;;13.78;79.37;102566.06;5047543;28;45829;-73
2021/10/11 06:36:11;;;;;;;;;18.00;17.25;;;;;13.81;79.35;102571.22;5034359;28;48178;-72
2021/10/11 06:38:36;;;;;;;;;19.75;15.75;;;;;13.85;79.51;102566.75;5053043;28;46030;-72
2021/10/11 06:41:02;;;;;;;;;15.75;13.75;;;;;13.89;79.20;102575.47;5049914;28;45559;-72
2021/10/11 06:43:27;;;;;;;;;17.75;16.00;;;;;13.93;79.38;102574.44;5047305;28;45604;-72
2021/10/11 06:45:52;;;;;;;;;18.00;13.50;;;;;13.95;79.18;102562.06;5048325;28;58407;-73
2021/10/11 06:48:18;;;;;;;;;20.00;13.50;;;;;14.02;78.63;102574.19;5051798;28;45734;-72
2021/10/11 06:50:44;;;;;;;;;12.25;12.25;;;;;13.85;79.24;102529.75;5048956;28;45399;-71
2021/10/11 06:53:10;;;;;;;;;16.00;13.75;;;;;14.15;78.96;102580.00;5050323;28;45398;-71
2021/10/11 06:55:35;;;;;;;;;14.00;11.75;;;;;14.22;78.43;102576.28;5054642;28;46297;-71
2021/10/11 06:58:00;;;;;;;;;13.50;12.25;;;;;14.22;78.21;102565.69;5059075;28;53768;-71
2021/10/11 07:00:26;;;;;;;;;18.25;11.75;;;;;14.33;78.05;102577.69;5065861;28;45607;-71
2021/10/11 07:02:51;;;;;;;;;17.00;12.25;;;;;14.41;77.66;102579.22;5057153;28;46074;-71
2021/10/11 07:05:17;;;;;;;;;14.75;12.50;;;;;14.57;77.88;102567.34;5055740;28;46884;-70
2021/10/11 07:07:44;;;;;;;;;12.50;10.25;;;;;14.93;77.39;102575.91;5066278;28;45345;-70
2021/10/11 07:10:09;;;;;;;;;15.50;13.00;;;;;15.39;77.04;102572.59;5053630;28;45568;-71
2021/10/11 07:12:35;;;;;;;;;14.50;13.25;;;;;15.80;76.20;102565.03;5053768;28;45465;-71
2021/10/11 07:15:01;;;;;;;;;15.50;9.50;;;;;16.43;75.08;102568.00;5052166;28;45544;-72
2021/10/11 07:17:26;;;;;;;;;13.50;11.75;;;;;16.84;73.25;102578.84;5050164;28;45454;-71
2021/10/11 07:19:52;;;;;;;;;12.25;12.25;;;;;16.92;72.66;102571.44;5056337;28;45430;-71
2021/10/11 07:22:18;;;;;;;;;14.25;9.25;;;;;17.13;71.92;102589.16;5054972;28;45504;-71
2021/10/11 07:24:45;;;;;;;;;12.25;9.50;;;;;17.63;72.20;102582.63;5052165;28;46137;-71
2021/10/11 07:27:11;;;;;;;;;13.25;10.25;;;;;18.50;70.45;102582.25;5054694;28;45296;-71
2021/10/11 07:29:37;;;;;;;;;13.25;9.50;;;;;19.48;69.16;102584.63;5054917;28;45542;-71
2021/10/11 07:32:04;;;;;;;;;14.50;10.75;;;;;20.28;67.24;102592.84;5054638;28;45319;-71
2021/10/11 07:34:30;;;;;;;;;13.25;11.50;;;;;21.31;65.72;102590.63;5051398;28;47589;-71
2021/10/11 07:36:55;;;;;;;;;13.25;11.00;;;;;22.40;63.46;102610.81;5055115;28;45499;-71
2021/10/11 07:39:21;;;;;;;;;9.25;7.75;;;;;23.26;60.67;102603.41;5051175;28;45327;-71
2021/10/11 07:41:46;;;;;;;;;8.00;6.25;;;;;24.15;59.17;102603.53;5054735;28;45567;-71
2021/10/11 07:44:11;;;;;;;;;10.75;8.50;;;;;25.34;58.10;102614.63;5053987;28;46261;-71
2021/10/11 07:46:38;;;;;;;;;12.50;8.25;;;;;26.54;55.43;102609.69;5056104;28;45456;-71
2021/10/11 07:49:05;;;;;;;;;5.00;5.00;;;;;27.56;53.01;102616.47;5056481;28;45491;-71
2021/10/11 07:51:30;;;;;;;;;10.75;9.00;;;;;28.54;51.18;102611.47;5055671;28;45762;-72
2021/10/11 07:53:55;;;;;;;;;9.25;7.25;;;;;29.11;50.52;102609.03;5056002;28;45474;-72
2021/10/11 07:56:21;;;;;;;;;6.75;6.00;;;;;29.78;48.50;102610.00;5055306;28;50477;-72
2021/10/11 07:58:46;;;;;;;;;7.00;6.00;;;;;30.23;46.94;102607.44;5056902;28;45579;-71
2021/10/11 08:01:11;;;;;;;;;6.25;6.25;;;;;31.10;48.04;102600.63;5056216;28;45432;-71
2021/10/11 08:03:37;;;;;;;;;5.00;4.75;;;;;31.69;43.41;102618.97;5054267;28;46024;-72
2021/10/11 08:06:07;;;;;;;;;7.50;4.25;;;;;32.33;42.04;102618.69;5055401;28;45415;-72
2021/10/11 08:08:33;;;;;;;;;8.50;6.75;;;;;33.10;41.40;102611.25;5055719;28;45493;-72
2021/10/11 08:10:59;;;;;;;;;7.25;5.00;;;;;33.71;41.74;102626.25;5055062;28;45482;-72
2021/10/11 08:13:25;;;;;;;;;5.25;5.25;;;;;33.73;39.12;102630.53;5054520;28;46088;-71
2021/10/11 08:15:51;;;;;;;;;7.00;6.75;;;;;33.67;38.40;102633.06;5055819;28;45486;-72
2021/10/11 08:18:16;;;;;;;;;6.50;6.00;;;;;33.80;39.00;102638.00;5054274;28;45438;-72
2021/10/11 08:20:42;;;;;;;;;7.75;6.00;;;;;34.16;37.33;102636.59;5056847;28;45454;-72
2021/10/11 08:23:09;;;;;;;;;7.25;6.25;;;;;34.94;36.40;102638.47;5048890;28;46983;-72
2021/10/11 08:25:35;;;;;;;;;5.00;5.00;;;;;35.65;36.32;102633.63;5055302;28;48552;-72
2021/10/11 08:28:00;;;;;;;;;7.75;4.00;;;;;36.38;34.94;102634.69;5055850;28;45380;-72
2021/10/11 08:30:26;;;;;;;;;8.00;6.00;;;;;36.57;34.11;102644.25;5055845;28;45468;-72
2021/10/11 08:32:51;;;;;;;;;7.50;6.50;;;;;36.93;33.89;102636.03;5055899;28;45629;-72
2021/10/11 08:35:16;;;;;;;;;4.00;4.00;;;;;37.30;32.33;102639.56;5055518;28;45429;-70
2021/10/11 08:37:42;;;;;;;;;3.00;2.00;;;;;37.57;31.76;102635.16;5055657;28;45712;-71
2021/10/11 08:40:08;;;;;;;;;3.50;3.00;;;;;37.84;31.93;102638.97;5055291;28;45520;-71
2021/10/11 08:42:34;;;;;;;;;3.75;3.50;;;;;37.99;30.90;102631.47;5055355;28;45925;-71
2021/10/11 08:44:59;;;;;;;;;4.75;3.50;;;;;38.01;29.57;102648.59;5055661;28;45383;-71
2021/10/11 08:47:25;;;;;;;;;5.00;2.00;;;;;37.98;30.02;102650.88;5054444;28;52996;-71
2021/10/11 08:49:51;;;;;;;;;4.50;2.75;;;;;37.44;29.16;102649.63;5056558;28;45494;-71
2021/10/11 08:52:23;;;;;;;;;6.25;3.75;;;;;37.63;30.03;102642.59;5055126;28;45943;-71
2021/10/11 08:54:49;;;;;;;;;3.00;2.00;;;;;37.96;29.53;102648.34;5055398;28;45497;-71
2021/10/11 08:57:29;;;;;;;;;4.00;2.75;;;;;38.07;28.99;102647.78;5066683;28;45406;-71
2021/10/11 09:00:08;;;;;;;;;2.75;2.00;;;;;38.11;28.05;102657.31;5054977;28;45509;-71
2021/10/11 09:02:34;;;;;;;;;2.00;2.00;;;;;38.21;28.42;102654.16;5055349;28;46195;-71
2021/10/11 09:04:59;;;;;;;;;3.25;1.50;;;;;38.63;27.64;102661.38;5059813;28;45372;-71
2021/10/11 09:07:29;;;;;;;;;1.50;1.50;;;;;38.84;27.14;102654.91;5063072;28;45520;-71
2021/10/11 09:09:57;;;;;;;;;2.50;2.50;;;;;39.11;27.39;102660.47;5060822;28;45551;-71
2021/10/11 09:12:29;;;;;;;;;2.00;2.00;;;;;38.03;27.42;102664.84;5055049;28;46207;-71
2021/10/11 09:15:07;;;;;;;;;2.00;2.00;;;;;38.17;27.02;102658.41;5062677;28;45599;-71
2021/10/11 09:17:38;;;;;;;;;2.50;1.00;;;;;38.48;26.94;102657.09;5059602;28;45480;-71
2021/10/11 09:20:09;;;;;;;;;4.00;1.50;;;;;37.34;27.04;102660.91;5062921;28;45525;-71
2021/10/11 09:22:36;;;;;;;;;1.00;1.00;;;;;37.96;27.22;102672.22;5054313;28;46215;-71
2021/10/11 09:25:04;;;;;;;;;4.00;2.25;;;;;38.71;27.11;102668.56;5054848;28;45681;-71
2021/10/11 09:27:54;;;;;;;;;1.00;1.00;;;;;39.24;25.78;102671.50;5055042;28;45318;-71
2021/10/11 09:30:25;;;;;;;;;1.00;1.00;;;;;39.45;26.55;102670.44;5054920;28;45474;-71
2021/10/11 09:32:50;;;;;;;;;1.50;0.00;;;;;39.14;25.10;102662.78;5055576;28;45506;-71
2021/10/11 09:35:21;;;;;;;;;2.00;1.00;;;;;38.86;25.07;102655.53;5055192;28;45443;-72
2021/10/11 09:37:50;;;;;;;;;2.75;1.25;;;;;38.58;25.66;102663.03;5054193;28;45693;-71
2021/10/11 09:40:18;;;;;;;;;1.00;1.00;;;;;37.81;26.06;102647.59;5054767;28;45366;-71
2021/10/11 09:42:44;;;;;;;;;1.50;0.75;;;;;36.89;25.95;102647.56;5054257;28;45402;-71
2021/10/11 09:45:09;;;;;;;;;4.50;1.25;;;;;35.99;26.46;102645.97;5057885;28;45379;-71
2021/10/11 09:47:37;;;;;;;;;0.00;0.00;;;;;35.17;27.05;102637.63;5054864;28;45415;-71
2021/10/11 09:50:06;;;;;;;;;1.50;1.00;;;;;34.97;27.28;102643.56;5055350;28;45276;-71
2021/10/11 09:52:32;;;;;;;;;2.50;1.50;;;;;34.69;27.79;102634.16;5053858;28;46569;-71
2021/10/11 09:54:57;;;;;;;;;2.25;1.75;;;;;34.19;28.65;102649.00;5056347;28;45484;-72
2021/10/11 09:57:23;;;;;;;;;2.00;0.00;;;;;33.32;27.90;102651.47;5059245;28;45574;-71
2021/10/11 09:59:50;;;;;;;;;1.00;1.00;;;;;32.35;29.46;102633.84;5054533;28;45391;-71
2021/10/11 10:02:20;;;;;;;;;0.00;0.00;;;;;32.09;29.34;102641.16;5057537;28;45696;-71
2021/10/11 10:04:48;;;;;;;;;2.00;2.00;;;;;31.85;29.76;102631.88;5064070;28;45452;-71
2021/10/11 10:07:17;;;;;;;;;1.00;1.00;;;;;31.80;29.82;102636.03;5056900;28;45539;-71
2021/10/11 10:09:52;;;;;;;;;3.50;2.00;;;;;31.26;29.67;102638.81;5054024;28;45415;-72
2021/10/11 10:12:17;;;;;;;;;2.00;1.50;;;;;30.44;30.62;102636.19;5053809;28;46381;-71
2021/10/11 10:14:43;;;;;;;;;2.25;2.25;;;;;29.81;31.11;102639.50;5053897;28;45582;-71
2021/10/11 10:17:08;;;;;;;;;1.00;1.00;;;;;29.18;31.68;102639.94;5054756;28;48928;-71
2021/10/11 10:19:38;;;;;;;;;1.50;1.00;;;;;28.49;31.37;102640.78;5053534;28;45347;-71
2021/10/11 10:22:09;;;;;;;;;2.00;1.50;;;;;27.70;32.68;102635.06;5054328;28;45446;-71
2021/10/11 10:24:35;;;;;;;;;0.00;0.00;;;;;27.49;33.38;102645.84;5054099;28;45488;-71
2021/10/11 10:27:03;;;;;;;;;2.00;1.00;;;;;27.42;32.87;102641.09;5054128;28;45492;-71
2021/10/11 10:29:40;;;;;;;;;2.00;2.00;;;;;26.98;33.96;102634.84;5054010;28;45297;-71
2021/10/11 10:32:06;;;;;;;;;3.00;2.00;;;;;26.69;34.21;102645.34;5053971;28;46510;-72
2021/10/11 10:34:32;;;;;;;;;2.75;2.00;;;;;26.70;34.98;102641.66;5052999;28;45245;-71
2021/10/11 10:36:59;;;;;;;;;4.00;2.00;;;;;26.71;35.55;102646.06;5053929;28;45290;-71
2021/10/11 10:39:36;;;;;;;;;1.00;1.00;;;;;26.91;35.60;102645.28;5053999;28;45441;-72
2021/10/11 10:42:02;;;;;;;;;3.25;3.00;;;;;26.50;35.09;102648.66;5053539;28;45471;-71
2021/10/11 10:44:27;;;;;;;;;2.00;2.00;;;;;25.89;35.51;102650.78;5053439;28;45844;-72
2021/10/11 10:47:01;;;;;;;;;4.75;2.25;;;;;25.50;36.69;102644.75;5036774;28;45414;-71
2021/10/11 10:49:26;;;;;;;;;4.75;2.25;;;;;25.36;37.28;102632.34;5053333;28;45266;-71
2021/10/11 10:51:51;;;;;;;;;2.50;1.50;;;;;25.43;35.96;102630.06;5053300;28;46179;-71
2021/10/11 10:54:17;;;;;;;;;3.00;2.00;;;;;25.52;36.45;102632.88;5054222;28;46436;-71
2021/10/11 10:56:42;;;;;;;;;3.00;1.50;;;;;25.62;35.96;102638.44;5053866;28;45747;-71
2021/10/11 10:59:10;;;;;;;;;2.00;1.00;;;;;25.66;35.98;102642.63;5054426;28;45483;-71
2021/10/11 11:01:36;;;;;;;;;1.00;1.00;;;;;25.52;35.59;102642.81;5053748;28;47508;-71
2021/10/11 11:04:10;;;;;;;;;5.50;1.50;;;;;25.44;35.88;102643.41;5053215;28;45366;-71
2021/10/11 11:06:36;;;;;;;;;1.25;1.25;;;;;25.38;35.58;102651.09;5053751;28;45478;-71
2021/10/11 11:09:01;;;;;;;;;2.00;2.00;;;;;25.23;35.87;102645.03;5053881;28;45379;-71